Terminal Aerodrome Forecast
Issued by NWS

Current Version | Previous Version | Text Only | Print | Product List | Glossary On
Versions: 1 2 3 4 5 6 7 8 9 10 11 12 13 14 15 16 17 18 19 20 21 22 23 24 25 26 27 28 29 30 31 32 33 34
000
FTUS44 KFWD 232011 AAA
TAFAFW
TAF AMD
KAFW 232011Z 2320/2418 03005KT 3SM BR VCTS OVC004CB
     FM240000 03005KT 2SM -DZ OVC004
     FM240800 05005KT 2SM BR VCSH OVC004
      TEMPO 2415/2417 1SM TSRA OVC004CB
     FM241700 27010KT P6SM BKN007=

USA.gov is the U.S. government's official web portal to all federal, state and local government web resources and services.